Time;durP1;ratioP1;P1;durP2;ratioP2;P2;SDS_P1;SDS_P2;PMS_P1;PMS_P2;Temp;Humidity;BMP_temperature;BMP_pressure;BME280_temperature;BME280_humidity;BME280_pressure;Samples;Min_cycle;Max_cycle;Signal;HPM_P1;HPM_P2
2022/09/26 00:01:19;;;;;;;15.30;14.50;;;;;;;13.22;100.00;100391.75;5053728;28;20397;-70
2022/09/26 00:04:28;;;;;;;15.95;15.05;;;;;;;13.16;100.00;100384.53;5053257;28;20108;-71
2022/09/26 00:06:55;;;;;;;15.60;14.70;;;;;;;12.97;100.00;100380.72;5040363;28;20411;-70
2022/09/26 00:09:24;;;;;;;15.10;14.30;;;;;;;12.96;100.00;100379.88;5053611;28;20029;-70
2022/09/26 00:11:49;;;;;;;15.32;14.48;;;;;;;12.89;100.00;100384.34;5053263;28;20033;-70
2022/09/26 00:14:20;;;;;;;15.07;14.27;;;;;;;12.78;100.00;100378.69;5052767;28;20024;-70
2022/09/26 00:16:46;;;;;;;15.80;14.90;;;;;;;12.66;100.00;100378.41;5044139;28;20025;-69
2022/09/26 00:19:11;;;;;;;15.93;15.02;;;;;;;12.54;100.00;100370.13;5053465;28;20497;-69
2022/09/26 00:21:37;;;;;;;16.13;15.23;;;;;;;12.64;100.00;100375.97;5052596;28;20111;-71
2022/09/26 00:24:04;;;;;;;15.45;14.65;;;;;;;12.41;100.00;100370.00;5053464;28;20031;-71
2022/09/26 00:26:32;;;;;;;16.17;15.27;;;;;;;12.38;100.00;100373.03;5053333;28;20028;-71
2022/09/26 00:28:59;;;;;;;16.35;15.45;;;;;;;12.50;100.00;100368.03;5053509;28;20473;-71
2022/09/26 00:31:31;;;;;;;16.35;15.45;;;;;;;12.37;100.00;100360.75;5053122;28;20040;-69
2022/09/26 00:33:57;;;;;;;16.48;15.57;;;;;;;12.46;100.00;100362.28;5053149;28;20025;-70
2022/09/26 00:36:24;;;;;;;16.77;15.88;;;;;;;12.42;100.00;100361.84;5053058;28;20514;-69
2022/09/26 00:38:49;;;;;;;17.15;16.15;;;;;;;12.34;100.00;100361.16;5052980;28;20029;-69
2022/09/26 00:41:16;;;;;;;16.70;15.80;;;;;;;12.26;100.00;100348.78;5049393;28;20028;-71
2022/09/26 00:43:46;;;;;;;15.85;15.00;;;;;;;12.27;100.00;100347.78;5053010;28;20052;-69
2022/09/26 00:46:38;;;;;;;16.23;15.32;;;;;;;12.09;100.00;100334.09;5053105;28;20503;-70
2022/09/26 00:49:21;;;;;;;16.42;15.52;;;;;;;12.09;100.00;100356.19;5052943;28;20126;-69
2022/09/26 00:51:52;;;;;;;16.30;15.40;;;;;;;12.08;100.00;100343.91;5052887;28;20546;-71
2022/09/26 00:54:19;;;;;;;16.67;15.77;;;;;;;12.12;100.00;100347.03;5052821;28;20397;-69
2022/09/26 00:56:49;;;;;;;16.95;16.00;;;;;;;11.96;100.00;100340.09;5051731;28;20155;-70
2022/09/26 00:59:25;;;;;;;16.63;15.73;;;;;;;11.91;100.00;100347.81;5052762;28;20111;-70
2022/09/26 01:01:53;;;;;;;16.70;15.80;;;;;;;11.89;100.00;100355.97;5052689;28;20035;-71
2022/09/26 01:04:21;;;;;;;16.77;15.82;;;;;;;11.86;100.00;100350.22;5050818;28;20021;-70
2022/09/26 01:06:48;;;;;;;18.02;17.02;;;;;;;11.77;100.00;100340.66;5047493;28;20029;-69
2022/09/26 01:09:14;;;;;;;18.90;17.80;;;;;;;11.83;100.00;100345.28;5052646;28;20111;-69
2022/09/26 01:11:42;;;;;;;18.08;17.00;;;;;;;11.81;100.00;100331.31;5052378;28;20112;-71
2022/09/26 01:14:10;;;;;;;18.27;17.23;;;;;;;11.57;100.00;100340.44;5039616;28;20056;-71
2022/09/26 01:16:37;;;;;;;18.33;17.33;;;;;;;11.56;100.00;100336.94;5052468;28;20516;-70
2022/09/26 01:19:25;;;;;;;18.98;17.88;;;;;;;11.53;100.00;100329.34;5052244;28;20029;-70
2022/09/26 01:22:02;;;;;;;18.02;16.92;;;;;;;11.61;100.00;100331.91;5052375;28;20029;-71
2022/09/26 01:25:01;;;;;;;18.02;16.92;;;;;;;11.61;100.00;100328.44;5051943;28;20049;-69
2022/09/26 01:27:53;;;;;;;18.73;17.63;;;;;;;11.57;100.00;100330.63;5052112;28;20599;-70
2022/09/26 01:30:21;;;;;;;18.20;17.17;;;;;;;11.57;100.00;100327.16;5051194;28;20502;-71
2022/09/26 01:32:57;;;;;;;18.80;17.60;;;;;;;11.50;100.00;100323.56;5052077;28;20028;-69
2022/09/26 01:36:00;;;;;;;18.67;17.50;;;;;;;11.41;100.00;100319.38;5051925;28;20507;-70
2022/09/26 01:39:00;;;;;;;18.38;17.27;;;;;;;11.49;100.00;100316.63;5041783;28;20690;-70
2022/09/26 01:41:37;;;;;;;17.33;16.42;;;;;;;11.39;100.00;100322.22;5040738;28;20029;-71
2022/09/26 01:44:20;;;;;;;17.90;16.88;;;;;;;11.49;100.00;100313.97;5052151;28;20017;-70
2022/09/26 01:46:57;;;;;;;17.65;16.55;;;;;;;11.40;100.00;100302.63;5050836;28;20638;-69
2022/09/26 01:49:42;;;;;;;16.95;16.02;;;;;;;11.31;100.00;100299.25;5051937;28;20031;-69
2022/09/26 01:52:24;;;;;;;16.35;15.43;;;;;;;11.35;100.00;100305.00;5051749;28;20016;-69
2022/09/26 01:55:09;;;;;;;17.15;16.13;;;;;;;11.40;100.00;100299.16;5051577;28;20029;-70
2022/09/26 01:57:40;;;;;;;;;;;;;;;11.39;100.00;100305.47;5052046;28;20025;-69
2022/09/26 02:00:08;;;;;;;16.67;15.70;;;;;;;11.32;100.00;100298.25;5051783;28;19912;-69
2022/09/26 02:02:38;;;;;;;16.60;15.70;;;;;;;11.05;100.00;100286.44;5051584;28;20036;-70
2022/09/26 02:05:15;;;;;;;16.50;15.60;;;;;;;11.14;100.00;100299.63;5050832;28;20031;-71
2022/09/26 02:07:51;;;;;;;16.50;15.60;;;;;;;11.12;100.00;100293.69;5052059;28;20025;-69
2022/09/26 02:10:27;;;;;;;16.55;15.65;;;;;;;11.16;100.00;100295.75;5051544;28;20024;-69
2022/09/26 02:12:58;;;;;;;16.77;15.80;;;;;;;11.12;100.00;100278.56;5051348;28;20029;-69
2022/09/26 02:15:26;;;;;;;17.65;16.55;;;;;;;11.01;100.00;100276.38;5051284;28;20025;-70
2022/09/26 02:17:57;;;;;;;16.60;15.70;;;;;;;10.97;100.00;100286.53;5051502;28;20085;-69
2022/09/26 02:20:27;;;;;;;16.92;16.02;;;;;;;10.85;100.00;100271.25;5051029;28;20118;-69
2022/09/26 02:22:55;;;;;;;17.95;16.85;;;;;;;10.93;100.00;100289.72;5050808;28;20056;-70
2022/09/26 02:25:21;;;;;;;17.08;16.17;;;;;;;10.98;100.00;100284.72;5051389;28;20107;-69
2022/09/26 02:27:47;;;;;;;17.30;16.30;;;;;;;10.91;100.00;100279.31;5049899;28;20044;-69
2022/09/26 02:30:12;;;;;;;17.58;16.52;;;;;;;10.99;100.00;100283.69;5051214;28;20033;-70
2022/09/26 02:32:39;;;;;;;17.33;16.33;;;;;;;11.04;100.00;100281.31;5051270;28;20392;-70
2022/09/26 02:35:52;;;;;;;18.13;17.00;;;;;;;10.96;100.00;100279.59;5048948;28;20035;-69
2022/09/26 02:37:58;;;;;;;16.73;15.82;;;;;;;11.07;100.00;100278.28;5051475;28;20025;-69
2022/09/26 02:40:32;;;;;;;17.27;16.27;;;;;;;11.04;100.00;100268.88;5055192;28;20017;-71
2022/09/26 02:43:11;;;;;;;16.90;15.88;;;;;;;10.92;100.00;100285.44;5055140;28;20096;-70
2022/09/26 02:45:50;;;;;;;17.13;16.13;;;;;;;10.78;100.00;100284.41;5055343;28;20029;-69
2022/09/26 02:48:42;;;;;;;16.58;15.68;;;;;;;10.81;100.00;100284.06;5045051;28;20142;-70
2022/09/26 02:51:48;;;;;;;18.55;17.33;;;;;;;10.71;100.00;100280.84;5040763;28;20028;-69
2022/09/26 02:54:24;;;;;;;17.63;16.52;;;;;;;10.75;100.00;100280.31;5046914;28;20036;-71
2022/09/26 02:57:02;;;;;;;16.83;15.93;;;;;;;10.78;100.00;100279.94;5054050;28;20031;-69
2022/09/26 02:59:36;;;;;;;18.13;17.02;;;;;;;10.78;100.00;100295.03;5054845;28;20492;-69
2022/09/26 03:02:18;;;;;;;19.17;18.02;;;;;;;10.83;100.00;100289.19;5054948;28;20033;-70
2022/09/26 03:05:10;;;;;;;18.48;17.38;;;;;;;10.89;100.00;100288.47;5054422;28;20032;-71
2022/09/26 03:07:58;;;;;;;19.05;17.85;;;;;;;10.89;100.00;100286.63;5054929;28;20052;-71
2022/09/26 03:10:28;;;;;;;18.25;17.17;;;;;;;10.88;100.00;100292.94;5054564;28;20387;-69
2022/09/26 03:12:59;;;;;;;18.20;17.10;;;;;;;10.86;100.00;100288.81;5053607;28;20124;-71
2022/09/26 03:15:26;;;;;;;18.10;17.00;;;;;;;10.84;100.00;100288.19;5054570;28;20087;-69
2022/09/26 03:17:53;;;;;;;18.02;16.92;;;;;;;10.76;100.00;100284.59;5054650;28;20484;-70
2022/09/26 03:20:23;;;;;;;16.42;15.52;;;;;;;10.78;100.00;100279.94;5054265;28;20115;-71
2022/09/26 03:22:49;;;;;;;16.63;15.70;;;;;;;10.87;100.00;100271.88;5054540;28;20393;-70
2022/09/26 03:25:21;;;;;;;16.48;15.57;;;;;;;10.89;100.00;100275.19;5054641;28;20025;-69
2022/09/26 03:27:48;;;;;;;16.75;15.75;;;;;;;10.90;100.00;100280.31;5054477;28;20025;-71
2022/09/26 03:30:16;;;;;;;15.70;14.90;;;;;;;10.98;100.00;100268.78;5053653;28;20040;-70
2022/09/26 03:32:41;;;;;;;17.45;16.35;;;;;;;10.86;100.00;100272.88;5054157;28;20052;-71
2022/09/26 03:35:08;;;;;;;16.90;15.90;;;;;;;10.99;100.00;100283.69;5054024;28;20056;-69
2022/09/26 03:37:36;;;;;;;16.15;15.25;;;;;;;11.03;100.00;100277.84;5058076;28;20052;-70
2022/09/26 03:40:03;;;;;;;16.60;15.70;;;;;;;10.97;100.00;100273.28;5054117;28;20104;-71
2022/09/26 03:42:30;;;;;;;16.05;15.15;;;;;;;10.90;100.00;100264.38;5054091;28;20025;-71
2022/09/26 03:44:56;;;;;;;16.48;15.50;;;;;;;10.91;100.00;100275.81;5054215;28;20029;-71
2022/09/26 03:47:22;;;;;;;15.95;15.05;;;;;;;10.90;100.00;100275.00;5052868;28;20049;-70
2022/09/26 03:49:47;;;;;;;17.05;15.95;;;;;;;10.87;100.00;100272.72;5054189;28;20108;-71
2022/09/26 03:52:13;;;;;;;15.60;14.80;;;;;;;10.80;100.00;100271.81;5054008;28;20041;-71
2022/09/26 03:54:39;;;;;;;16.45;15.55;;;;;;;10.90;100.00;100282.97;5054159;28;20028;-71
2022/09/26 03:57:05;;;;;;;16.67;15.68;;;;;;;10.89;100.00;100273.38;5052579;28;20029;-71
2022/09/26 03:59:30;;;;;;;16.73;15.73;;;;;;;10.96;100.00;100268.16;5053696;28;20028;-71
2022/09/26 04:01:56;;;;;;;16.63;15.63;;;;;;;10.96;100.00;100278.75;5053698;28;20078;-70
2022/09/26 04:04:21;;;;;;;17.20;16.10;;;;;;;10.76;100.00;100278.47;5052582;28;20078;-71
2022/09/26 04:06:49;;;;;;;16.33;15.40;;;;;;;10.89;100.00;100283.16;5053539;28;20397;-69
2022/09/26 04:09:16;;;;;;;16.10;15.18;;;;;;;11.06;100.00;100281.97;5053589;28;20067;-69
2022/09/26 04:11:42;;;;;;;15.88;14.98;;;;;;;11.15;100.00;100272.06;5053633;28;20056;-69
2022/09/26 04:14:08;;;;;;;16.77;15.77;;;;;;;11.20;100.00;100288.25;5053227;28;20021;-70
2022/09/26 04:16:35;;;;;;;16.35;15.35;;;;;;;11.19;100.00;100298.06;5053447;28;20037;-70
2022/09/26 04:19:01;;;;;;;16.75;15.75;;;;;;;11.11;100.00;100292.84;5053212;28;20044;-69
2022/09/26 04:21:27;;;;;;;15.95;15.05;;;;;;;11.18;100.00;100285.81;5040472;28;20017;-70
2022/09/26 04:23:53;;;;;;;17.02;15.93;;;;;;;11.37;100.00;100272.94;5053170;28;20472;-69
2022/09/26 04:26:22;;;;;;;16.90;15.88;;;;;;;11.52;100.00;100268.44;5053477;28;20025;-70
2022/09/26 04:28:53;;;;;;;16.25;15.35;;;;;;;11.55;100.00;100270.72;5053863;28;20057;-71
2022/09/26 04:31:20;;;;;;;15.70;14.80;;;;;;;11.48;100.00;100272.47;5053379;28;20103;-71
2022/09/26 04:33:46;;;;;;;16.23;15.25;;;;;;;11.38;100.00;100254.16;5048759;28;20492;-70
2022/09/26 04:36:13;;;;;;;16.10;15.20;;;;;;;11.33;100.00;100261.88;5052827;28;20032;-72
2022/09/26 04:38:39;;;;;;;18.80;17.45;;;;;;;11.82;100.00;100264.69;5051728;28;20096;-71
2022/09/26 04:41:11;;;;;;;16.13;15.20;;;;;;;13.24;100.00;100265.38;5052948;28;20040;-71
2022/09/26 04:43:37;;;;;;;16.50;15.50;;;;;;;13.80;100.00;100258.97;5052911;28;20060;-70
2022/09/26 04:46:14;;;;;;;16.02;15.02;;;;;;;13.87;100.00;100246.47;5053581;28;20027;-72
2022/09/26 04:48:39;;;;;;;15.13;14.23;;;;;;;15.13;100.00;100247.22;5054641;28;20051;-69
2022/09/26 04:51:10;;;;;;;15.50;14.60;;;;;;;15.37;100.00;100245.66;5052759;28;20424;-71
2022/09/26 04:53:37;;;;;;;15.80;14.90;;;;;;;18.03;100.00;100252.75;5050870;28;20029;-71
2022/09/26 04:56:03;;;;;;;15.60;14.70;;;;;;;20.09;100.00;100242.31;5052531;28;20502;-71
2022/09/26 04:58:29;;;;;;;14.20;13.40;;;;;;;20.06;100.00;100250.09;5052100;28;20432;-70
2022/09/26 05:00:54;;;;;;;14.45;13.65;;;;;;;21.96;100.00;100242.34;5049808;28;20035;-71
2022/09/26 05:03:20;;;;;;;13.90;13.20;;;;;;;22.59;94.77;100243.38;5042628;28;20053;-70
2022/09/26 05:05:49;;;;;;;13.40;12.70;;;;;;;22.53;93.69;100238.19;5057496;28;20404;-70
2022/09/26 05:08:15;;;;;;;13.43;12.73;;;;;;;23.51;89.06;100235.69;5052909;28;20028;-69
2022/09/26 05:10:42;;;;;;;13.70;13.00;;;;;;;24.55;81.74;100249.88;5051151;28;20028;-70
2022/09/26 05:13:08;;;;;;;13.50;12.80;;;;;;;25.42;68.72;100253.16;5044044;28;20029;-69
2022/09/26 05:15:38;;;;;;;13.27;12.65;;;;;;;24.10;83.76;100251.53;5052550;28;20541;-70
2022/09/26 05:18:06;;;;;;;13.90;13.20;;;;;;;24.03;84.82;100245.56;5052099;28;20028;-70
2022/09/26 05:20:33;;;;;;;13.50;12.80;;;;;;;22.58;87.00;100233.66;5052168;28;20028;-70
2022/09/26 05:23:02;;;;;;;14.00;13.30;;;;;;;24.03;84.93;100231.19;5052247;28;20102;-70
2022/09/26 05:28:18;;;;;;;13.10;12.50;;;;;;;26.47;63.02;100238.28;5051275;28;20432;-72
2022/09/26 05:30:43;;;;;;;13.85;13.15;;;;;;;25.53;64.10;100227.53;5052105;28;20025;-71
2022/09/26 05:33:11;;;;;;;13.68;13.00;;;;;;;25.10;71.75;100215.53;5048685;28;20020;-70
2022/09/26 05:35:38;;;;;;;13.18;12.57;;;;;;;25.28;71.56;100224.97;5042714;28;20420;-69
2022/09/26 05:38:04;;;;;;;13.88;13.18;;;;;;;26.75;58.46;100233.09;5051893;28;20024;-71
2022/09/26 05:43:15;;;;;;;13.95;13.25;;;;;;;29.56;48.18;100230.09;5052081;28;20071;-69
2022/09/26 05:45:41;;;;;;;14.55;13.80;;;;;;;29.88;45.89;100224.38;5051531;28;20056;-70
2022/09/26 05:48:08;;;;;;;15.10;14.30;;;;;;;28.79;47.39;100215.28;5052334;28;20076;-70
2022/09/26 05:50:34;;;;;;;14.98;14.18;;;;;;;29.20;46.91;100210.91;5051828;28;20447;-72
2022/09/26 05:53:00;;;;;;;13.95;13.25;;;;;;;29.23;45.50;100196.63;5050137;28;20028;-71
2022/09/26 05:55:27;;;;;;;14.20;13.50;;;;;;;29.31;44.76;100198.66;5051647;28;20029;-71
2022/09/26 05:57:59;;;;;;;14.05;13.35;;;;;;;27.90;45.85;100193.66;5051422;28;20021;-71
2022/09/26 06:00:25;;;;;;;13.30;12.70;;;;;;;30.61;42.96;100197.59;5051874;28;20095;-70
2022/09/26 06:03:00;;;;;;;14.38;13.68;;;;;;;31.82;39.50;100195.09;5050657;28;20041;-70
2022/09/26 06:05:26;;;;;;;13.90;13.20;;;;;;;26.44;47.66;100195.31;5051442;28;20021;-70
2022/09/26 06:07:52;;;;;;;13.30;12.70;;;;;;;25.11;50.90;100189.22;5051136;28;20552;-70
2022/09/26 06:10:19;;;;;;;13.15;12.55;;;;;;;23.66;61.04;100180.78;5051556;28;20039;-70
2022/09/26 06:12:45;;;;;;;13.68;12.98;;;;;;;24.32;65.34;100185.38;5051306;28;20443;-70
2022/09/26 06:15:11;;;;;;;13.30;12.65;;;;;;;24.73;59.86;100177.94;5058821;28;20111;-69
2022/09/26 06:17:37;;;;;;;13.77;13.07;;;;;;;26.75;54.01;100190.34;5057549;28;20053;-70
2022/09/26 06:20:04;;;;;;;14.45;13.75;;;;;;;28.79;45.85;100187.16;5049962;28;20111;-70
2022/09/26 06:22:32;;;;;;;13.90;13.20;;;;;;;31.11;40.88;100199.22;5051179;28;20502;-71
2022/09/26 06:24:58;;;;;;;14.07;13.38;;;;;;;30.76;40.81;100199.13;5051089;28;20105;-71
2022/09/26 06:27:24;;;;;;;13.32;12.73;;;;;;;31.77;37.93;100203.50;5051256;28;20516;-69
2022/09/26 06:29:50;;;;;;;13.38;12.77;;;;;;;33.16;35.87;100212.06;5051245;28;20029;-70
2022/09/26 06:32:16;;;;;;;14.18;13.48;;;;;;;33.10;33.98;100223.56;5047521;28;20041;-71
2022/09/26 06:34:41;;;;;;;13.02;12.43;;;;;;;32.56;35.69;100221.41;5045653;28;20106;-71
2022/09/26 06:37:07;;;;;;;13.15;12.55;;;;;;;32.23;35.32;100232.13;5049731;28;20035;-71
2022/09/26 06:39:35;;;;;;;13.27;12.68;;;;;;;31.71;36.17;100236.84;5050999;28;20037;-71
2022/09/26 06:42:06;;;;;;;13.98;13.27;;;;;;;33.37;34.44;100242.31;5047423;28;20052;-70
2022/09/26 06:44:32;;;;;;;13.52;12.93;;;;;;;33.24;33.67;100235.94;5050994;28;20036;-71
2022/09/26 06:46:59;;;;;;;13.55;12.90;;;;;;;33.05;34.16;100237.50;5039396;28;20101;-71
2022/09/26 06:49:26;;;;;;;13.88;13.18;;;;;;;32.93;33.50;100230.00;5057026;28;20045;-71
2022/09/26 06:51:51;;;;;;;12.93;12.32;;;;;;;34.72;31.85;100227.09;5050961;28;20059;-70
2022/09/26 06:54:17;;;;;;;13.32;12.73;;;;;;;34.17;32.29;100224.84;5050375;28;20033;-70
2022/09/26 06:56:43;;;;;;;13.55;12.95;;;;;;;32.30;35.77;100218.72;5051042;28;20100;-70
2022/09/26 06:59:09;;;;;;;13.10;12.50;;;;;;;33.00;33.18;100219.28;5051117;28;20025;-71
2022/09/26 07:01:34;;;;;;;12.93;12.32;;;;;;;31.63;34.61;100216.53;5051156;28;20021;-70
2022/09/26 07:04:00;;;;;;;13.10;12.50;;;;;;;33.61;32.72;100222.41;5050593;28;20036;-70
2022/09/26 07:06:25;;;;;;;13.35;12.75;;;;;;;34.04;31.98;100219.28;5051035;28;20025;-70
2022/09/26 07:08:52;;;;;;;13.15;12.55;;;;;;;33.83;32.31;100217.69;5051084;28;20064;-70
2022/09/26 07:11:17;;;;;;;13.00;12.40;;;;;;;34.06;31.26;100203.22;5049901;28;20117;-71
2022/09/26 07:13:44;;;;;;;13.43;12.82;;;;;;;33.27;32.69;100209.69;5050693;28;20488;-72
2022/09/26 07:16:11;;;;;;;12.90;12.30;;;;;;;33.59;32.49;100207.41;5050687;28;20021;-72
2022/09/26 07:18:38;;;;;;;13.07;12.48;;;;;;;33.89;31.78;100200.63;5050746;28;20106;-70
2022/09/26 07:21:07;;;;;;;12.90;12.30;;;;;;;34.15;31.38;100210.59;5050739;28;20095;-71
2022/09/26 07:23:33;;;;;;;12.63;12.02;;;;;;;33.95;32.19;100209.53;5054075;28;20033;-70
2022/09/26 07:25:59;;;;;;;12.77;12.18;;;;;;;34.82;31.36;100212.88;5054572;28;20037;-70
2022/09/26 07:28:25;;;;;;;12.27;11.68;;;;;;;35.00;30.50;100204.38;5053620;28;20163;-71
2022/09/26 07:30:55;;;;;;;13.35;12.75;;;;;;;34.06;31.10;100194.97;5053669;28;20490;-72
2022/09/26 07:33:21;;;;;;;12.82;12.23;;;;;;;34.24;31.71;100190.09;5059604;28;20037;-71
2022/09/26 07:35:47;;;;;;;12.50;11.90;;;;;;;32.76;34.02;100181.41;5046460;28;20063;-71
2022/09/26 07:38:13;;;;;;;12.57;11.98;;;;;;;33.45;33.58;100196.69;5041998;28;20075;-71
2022/09/26 07:40:39;;;;;;;13.05;12.45;;;;;;;31.92;35.41;100196.69;5053923;28;20016;-72
2022/09/26 07:43:05;;;;;;;12.80;12.20;;;;;;;31.79;34.25;100186.69;5054162;28;20493;-70
2022/09/26 07:50:59;;;;;;;13.90;13.20;;;;;;;32.32;34.57;100172.56;5053608;28;20031;-70
2022/09/26 07:53:26;;;;;;;12.60;12.00;;;;;;;32.18;35.22;100172.75;5053917;28;20523;-71
2022/09/26 07:56:10;;;;;;;12.95;12.35;;;;;;;32.81;36.35;100178.47;5053752;28;20043;-72
2022/09/26 07:58:40;;;;;;;12.63;12.02;;;;;;;33.19;33.75;100161.09;5053740;28;20029;-71
2022/09/26 08:01:11;;;;;;;13.88;13.18;;;;;;;32.72;34.12;100177.72;5052585;28;20766;-71
2022/09/26 08:03:41;;;;;;;12.40;11.80;;;;;;;32.75;34.46;100173.47;5053491;28;20383;-71
2022/09/26 08:06:07;;;;;;;12.20;11.65;;;;;;;32.79;34.14;100168.94;5054060;28;20040;-69
2022/09/26 08:08:34;;;;;;;12.55;11.95;;;;;;;32.44;34.94;100169.91;5053806;28;20025;-70
2022/09/26 08:11:00;;;;;;;11.93;11.43;;;;;;;32.44;34.96;100164.44;5053533;28;20108;-70
2022/09/26 08:13:28;;;;;;;12.25;11.65;;;;;;;33.85;33.06;100163.13;5053624;28;20075;-70
2022/09/26 08:16:00;;;;;;;12.55;11.95;;;;;;;33.61;32.95;100159.16;5052149;28;20044;-70
2022/09/26 08:18:25;;;;;;;12.25;11.68;;;;;;;32.42;34.28;100163.16;5048041;28;20022;-72
2022/09/26 08:20:51;;;;;;;12.73;12.13;;;;;;;32.93;34.29;100159.34;5035464;28;20029;-71
2022/09/26 08:23:16;;;;;;;12.90;12.30;;;;;;;32.43;34.84;100173.00;5052410;28;20082;-72
2022/09/26 08:25:43;;;;;;;13.07;12.48;;;;;;;32.49;34.74;100163.44;5053231;28;20021;-71
2022/09/26 08:28:11;;;;;;;13.23;12.63;;;;;;;33.39;32.14;100165.00;5053101;28;20114;-70
2022/09/26 08:30:40;;;;;;;13.27;12.68;;;;;;;33.58;32.71;100157.09;5054582;28;20505;-71
2022/09/26 08:33:07;;;;;;;13.05;12.45;;;;;;;32.33;33.62;100149.47;5045205;28;20400;-71
2022/09/26 08:35:40;;;;;;;13.02;12.43;;;;;;;31.31;35.18;100144.63;5042060;28;20040;-72
2022/09/26 08:38:07;;;;;;;13.20;12.60;;;;;;;30.70;35.42;100141.00;5053851;28;20088;-71
2022/09/26 08:40:54;;;;;;;13.52;12.85;;;;;;;31.06;34.45;100143.44;5053038;28;20025;-70
2022/09/26 08:43:41;;;;;;;14.27;13.50;;;;;;;30.60;35.05;100146.72;5053220;28;20056;-71
2022/09/26 08:46:58;;;;;;;13.80;13.10;;;;;;;30.32;34.86;100129.69;5053006;28;20028;-71
2022/09/26 08:49:24;;;;;;;15.05;14.25;;;;;;;31.34;34.21;100126.72;5052799;28;20040;-72
2022/09/26 08:51:56;;;;;;;15.35;14.45;;;;;;;31.63;33.73;100109.59;5051583;28;20534;-71
2022/09/26 08:54:41;;;;;;;15.52;14.63;;;;;;;26.46;42.00;100108.00;5052512;28;20033;-71
2022/09/26 08:57:28;;;;;;;14.93;14.13;;;;;;;28.86;41.93;100106.44;5052507;28;20036;-71
2022/09/26 08:59:54;;;;;;;15.32;14.43;;;;;;;28.20;41.99;100105.03;5052687;28;20461;-71
2022/09/26 09:02:25;;;;;;;13.88;13.18;;;;;;;29.36;40.09;100113.81;5052458;28;20025;-70
2022/09/26 09:05:03;;;;;;;14.68;13.88;;;;;;;29.44;39.42;100099.41;5052435;28;20037;-70
2022/09/26 09:07:29;;;;;;;15.38;14.48;;;;;;;28.48;40.33;100084.06;5052105;28;20029;-70
2022/09/26 09:10:09;;;;;;;15.50;14.60;;;;;;;30.42;37.60;100088.38;5049303;28;20400;-71
2022/09/26 09:13:04;;;;;;;14.50;13.70;;;;;;;31.26;36.60;100089.97;5064859;28;20490;-72
2022/09/26 09:15:46;;;;;;;14.02;13.32;;;;;;;30.74;37.10;100076.22;5049094;28;20044;-72
2022/09/26 09:18:34;;;;;;;14.63;13.82;;;;;;;30.65;38.57;100077.31;5050691;28;20048;-72
2022/09/26 09:21:08;;;;;;;15.68;14.75;;;;;;;30.64;37.00;100081.19;5038144;28;20017;-72
2022/09/26 09:23:54;;;;;;;14.98;14.18;;;;;;;31.93;37.23;100094.03;5051838;28;20025;-72
2022/09/26 09:26:35;;;;;;;15.30;14.40;;;;;;;30.37;37.60;100093.19;5044621;28;20053;-70
2022/09/26 09:29:09;;;;;;;14.10;13.40;;;;;;;29.02;40.43;100090.56;5048553;28;20031;-71
2022/09/26 09:31:39;;;;;;;15.23;14.32;;;;;;;28.20;40.85;100083.22;5051887;28;20414;-71
2022/09/26 09:34:11;;;;;;;15.23;14.32;;;;;;;28.53;42.28;100083.97;5051790;28;20021;-70
2022/09/26 09:36:44;;;;;;;14.95;14.15;;;;;;;28.06;43.21;100088.69;5051710;28;20021;-72
2022/09/26 09:39:14;;;;;;;14.65;13.85;;;;;;;28.26;41.65;100094.84;5051126;28;20020;-73
2022/09/26 09:41:46;;;;;;;15.48;14.57;;;;;;;27.50;39.35;100094.28;5051512;28;20476;-73
2022/09/26 09:44:26;;;;;;;15.85;14.95;;;;;;;27.35;37.72;100084.44;5033180;28;20117;-71
2022/09/26 09:46:52;;;;;;;16.45;15.45;;;;;;;27.69;36.09;100097.81;5051347;28;20033;-70
2022/09/26 09:49:22;;;;;;;15.63;14.73;;;;;;;27.23;36.78;100103.97;5051121;28;20091;-70
2022/09/26 09:52:09;;;;;;;15.68;14.77;;;;;;;26.32;37.83;100099.69;5051070;28;20046;-71
2022/09/26 09:55:11;;;;;;;15.48;14.57;;;;;;;26.25;39.79;100093.78;5051225;28;20108;-69
2022/09/26 09:58:01;;;;;;;14.95;14.15;;;;;;;26.12;39.62;100087.94;5051436;28;20106;-72
2022/09/26 10:00:27;;;;;;;14.50;13.70;;;;;;;25.39;40.56;100081.78;5050380;28;20029;-71
2022/09/26 10:03:10;;;;;;;15.20;14.35;;;;;;;26.30;40.63;100067.34;5051301;28;20523;-71
2022/09/26 10:05:44;;;;;;;14.32;13.52;;;;;;;25.77;38.89;100063.84;5042563;28;20017;-71
2022/09/26 10:08:17;;;;;;;14.73;13.93;;;;;;;25.23;40.08;100078.41;5051456;28;20028;-73
2022/09/26 10:11:00;;;;;;;15.32;14.43;;;;;;;25.52;39.90;100068.38;5051276;28;20087;-72
2022/09/26 10:13:31;;;;;;;15.23;14.33;;;;;;;25.20;41.39;100058.06;5051112;28;20025;-71
2022/09/26 10:16:07;;;;;;;15.45;14.55;;;;;;;24.42;42.52;100047.91;5051093;28;20055;-71
2022/09/26 10:18:55;;;;;;;14.95;14.15;;;;;;;24.59;42.97;100054.88;5048889;28;20024;-71
2022/09/26 10:21:27;;;;;;;15.70;14.80;;;;;;;24.82;43.19;100048.75;5034411;28;20523;-72
2022/09/26 10:23:53;;;;;;;16.67;15.63;;;;;;;24.67;42.04;100051.56;5050420;28;20028;-70
2022/09/26 10:26:24;;;;;;;15.95;15.00;;;;;;;24.75;42.12;100040.97;5042451;28;20021;-71
2022/09/26 10:28:55;;;;;;;15.52;14.63;;;;;;;24.64;42.37;100035.88;5050878;28;20051;-70
2022/09/26 10:31:29;;;;;;;14.80;14.00;;;;;;;24.78;42.23;100045.00;5051094;28;20029;-71
2022/09/26 10:34:01;;;;;;;15.45;14.55;;;;;;;25.21;42.02;100045.28;5049718;28;20070;-70
2022/09/26 10:36:39;;;;;;;17.65;16.45;;;;;;;24.65;42.98;100042.91;5050623;28;20123;-72
2022/09/26 10:42:03;;;;;;;16.42;15.43;;;;;;;25.25;41.80;100011.03;5050284;28;20561;-72
2022/09/26 10:44:33;;;;;;;15.75;14.85;;;;;;;24.89;42.82;100014.00;5050720;28;20090;-71
2022/09/26 10:47:10;;;;;;;15.90;14.98;;;;;;;24.72;44.36;100017.09;5050287;28;20078;-71
2022/09/26 10:49:54;;;;;;;15.88;14.88;;;;;;;24.22;45.92;100010.00;5050563;28;20123;-72
2022/09/26 10:52:28;;;;;;;15.13;14.23;;;;;;;24.38;44.09;99997.22;5045822;28;20020;-71
2022/09/26 10:55:03;;;;;;;15.45;14.55;;;;;;;24.37;44.33;100009.94;5050470;28;20028;-71
2022/09/26 10:57:44;;;;;;;14.85;14.05;;;;;;;24.76;43.97;99998.38;5052287;28;20021;-71
2022/09/26 11:00:23;;;;;;;14.95;14.05;;;;;;;25.18;42.98;99996.97;5054687;28;20021;-71
2022/09/26 11:02:51;;;;;;;15.65;14.75;;;;;;;25.15;44.40;99975.84;5053535;28;20150;-72
2022/09/26 11:08:09;;;;;;;15.15;14.25;;;;;;;25.21;43.61;99982.84;5048973;28;20063;-72
2022/09/26 11:10:40;;;;;;;15.55;14.65;;;;;;;25.29;42.55;99974.09;5047425;28;20504;-71
2022/09/26 11:13:20;;;;;;;15.73;14.82;;;;;;;25.40;43.12;99972.88;5054270;28;20028;-71
2022/09/26 11:16:02;;;;;;;15.10;14.20;;;;;;;25.20;44.16;99973.91;5054208;28;20021;-72
2022/09/26 11:18:50;;;;;;;15.27;14.38;;;;;;;24.61;44.06;99979.47;5053786;28;20116;-71
2022/09/26 11:21:27;;;;;;;15.68;14.77;;;;;;;24.85;44.04;99966.81;5035661;28;20032;-70
2022/09/26 11:24:14;;;;;;;14.98;14.07;;;;;;;25.21;43.09;99964.66;5045002;28;20025;-72
2022/09/26 11:26:54;;;;;;;15.02;14.23;;;;;;;24.89;43.88;99973.28;5051482;28;20029;-70
2022/09/26 11:29:57;;;;;;;15.65;14.75;;;;;;;25.25;42.19;99967.59;5053810;28;20072;-71
2022/09/26 11:32:31;;;;;;;14.38;13.57;;;;;;;25.77;40.95;99963.31;5052715;28;20040;-70
2022/09/26 11:35:01;;;;;;;15.17;14.27;;;;;;;25.49;41.11;99945.94;5054052;28;20389;-71
2022/09/26 11:37:29;;;;;;;15.70;14.80;;;;;;;25.67;41.25;99952.53;5053908;28;20266;-72
2022/09/26 11:40:11;;;;;;;14.57;13.77;;;;;;;25.62;41.07;99948.75;5053862;28;20101;-71
2022/09/26 11:42:54;;;;;;;14.75;13.95;;;;;;;24.96;40.43;99954.78;5052822;28;20032;-72
2022/09/26 11:45:41;;;;;;;14.88;14.07;;;;;;;25.45;40.56;99950.31;5053633;28;20048;-72